createdAt,value
2018-05-16T00:00:29.072Z,16.80
2018-05-16T00:01:29.216Z,16.87
2018-05-16T00:02:40.070Z,16.88
2018-05-16T00:03:29.465Z,16.95
2018-05-16T00:04:29.604Z,16.90
2018-05-16T00:05:29.741Z,16.84
2018-05-16T00:06:29.887Z,16.92
2018-05-16T00:07:30.022Z,16.83
2018-05-16T00:08:30.160Z,16.77
2018-05-16T00:09:30.309Z,16.91
2018-05-16T00:10:30.446Z,16.90
2018-05-16T00:11:30.587Z,16.70
2018-05-16T00:12:30.730Z,16.77
2018-05-16T00:13:30.863Z,16.83
2018-05-16T00:14:31.007Z,16.73
2018-05-16T00:15:31.147Z,16.76
2018-05-16T00:16:31.286Z,16.84
2018-05-16T00:17:31.426Z,16.76
2018-05-16T00:18:31.561Z,16.83
2018-05-16T00:19:31.701Z,16.83
2018-05-16T00:20:31.837Z,16.84
2018-05-16T00:21:31.970Z,16.83
2018-05-16T00:22:32.103Z,16.82
2018-05-16T00:23:32.268Z,16.94
2018-05-16T00:24:32.387Z,16.88
2018-05-16T00:25:32.528Z,16.83
2018-05-16T00:26:32.668Z,16.76
2018-05-16T00:27:32.807Z,16.77
2018-05-16T00:28:32.946Z,16.82
2018-05-16T00:29:33.089Z,16.82
2018-05-16T00:30:33.228Z,16.82
2018-05-16T00:31:33.362Z,16.83
2018-05-16T00:32:33.507Z,16.76
2018-05-16T00:33:33.662Z,16.82
2018-05-16T00:34:33.804Z,16.74
2018-05-16T00:35:33.939Z,16.79
2018-05-16T00:36:34.101Z,16.82
2018-05-16T00:37:34.231Z,16.76
2018-05-16T00:38:34.369Z,16.67
2018-05-16T00:39:34.518Z,16.69
2018-05-16T00:40:34.646Z,16.79
2018-05-16T00:41:34.784Z,16.73
2018-05-16T00:42:34.988Z,16.74
2018-05-16T00:43:35.032Z,16.83
2018-05-16T00:44:35.166Z,16.67
2018-05-16T00:45:35.315Z,16.79
2018-05-16T00:46:35.454Z,16.80
2018-05-16T00:47:35.609Z,16.77
2018-05-16T00:48:35.744Z,16.83
2018-05-16T00:49:35.891Z,16.82
2018-05-16T00:50:36.024Z,16.80
2018-05-16T00:51:36.189Z,16.73
2018-05-16T00:52:36.324Z,16.72
2018-05-16T00:53:36.467Z,16.79
2018-05-16T00:54:36.604Z,16.87
2018-05-16T00:55:36.745Z,16.83
2018-05-16T00:56:36.886Z,16.83
2018-05-16T00:57:37.025Z,16.77
2018-05-16T00:58:37.203Z,16.84
2018-05-16T00:59:37.341Z,16.87
2018-05-16T01:00:37.481Z,16.80
2018-05-16T01:01:37.619Z,16.80
2018-05-16T01:02:37.788Z,16.80
2018-05-16T01:03:37.936Z,16.70
2018-05-16T01:04:38.096Z,16.74
2018-05-16T01:05:38.210Z,16.58
2018-05-16T01:06:38.381Z,16.70
2018-05-16T01:07:38.517Z,16.67
2018-05-16T01:08:38.661Z,16.70
2018-05-16T01:09:38.792Z,16.72
2018-05-16T01:10:38.936Z,16.69
2018-05-16T01:11:39.068Z,16.67
2018-05-16T01:12:39.200Z,16.65
2018-05-16T01:13:39.336Z,16.70
2018-05-16T01:14:39.505Z,16.62
2018-05-16T01:15:39.632Z,16.59
2018-05-16T01:16:39.770Z,16.69
2018-05-16T01:17:39.938Z,16.65
2018-05-16T01:18:40.076Z,16.61
2018-05-16T01:19:40.206Z,16.67
2018-05-16T01:20:40.345Z,16.61
2018-05-16T01:21:40.515Z,16.61
2018-05-16T01:22:40.651Z,16.55
2018-05-16T01:23:40.794Z,16.69
2018-05-16T01:24:40.931Z,16.58
2018-05-16T01:25:41.099Z,16.55
2018-05-16T01:26:41.230Z,16.61
2018-05-16T01:27:41.373Z,16.57
2018-05-16T01:28:41.505Z,16.62
2018-05-16T01:29:41.704Z,16.64
2018-05-16T01:30:41.799Z,16.58
2018-05-16T01:31:41.933Z,16.57
2018-05-16T01:32:42.073Z,16.58
2018-05-16T01:33:42.235Z,16.59
2018-05-16T01:34:42.367Z,16.58
2018-05-16T01:35:42.510Z,16.57
2018-05-16T01:36:42.655Z,16.57
2018-05-16T01:37:42.807Z,16.64
2018-05-16T01:38:42.945Z,16.70
2018-05-16T01:39:43.084Z,16.65
2018-05-16T01:40:43.219Z,16.61
2018-05-16T01:41:43.372Z,16.54
2018-05-16T01:42:43.509Z,16.59
2018-05-16T01:43:43.648Z,16.54
2018-05-16T01:44:43.786Z,16.57
2018-05-16T01:45:43.962Z,16.61
2018-05-16T01:46:44.096Z,16.59
2018-05-16T01:47:44.241Z,16.43
2018-05-16T01:48:44.403Z,16.39
2018-05-16T01:49:44.565Z,16.43
2018-05-16T01:50:44.700Z,16.46
2018-05-16T01:51:44.839Z,16.44
2018-05-16T01:52:44.985Z,16.43
2018-05-16T01:53:45.123Z,16.39
2018-05-16T01:54:45.262Z,16.46
2018-05-16T01:55:45.401Z,16.40
2018-05-16T01:56:45.571Z,16.43
2018-05-16T01:57:45.706Z,16.39
2018-05-16T01:58:45.849Z,16.44
2018-05-16T01:59:45.992Z,16.42
2018-05-16T02:00:46.151Z,16.29
2018-05-16T02:01:46.288Z,16.36
2018-05-16T02:02:46.423Z,16.32
2018-05-16T02:03:46.577Z,16.34
2018-05-16T02:04:46.712Z,16.37
2018-05-16T02:05:46.900Z,16.39
2018-05-16T02:06:47.041Z,16.44
2018-05-16T02:07:47.226Z,16.39
2018-05-16T02:08:47.332Z,16.40
2018-05-16T02:09:47.498Z,16.40
2018-05-16T02:10:47.662Z,16.40
2018-05-16T02:11:47.831Z,16.34
2018-05-16T02:12:47.940Z,16.37
2018-05-16T02:13:48.076Z,16.33
2018-05-16T02:14:48.213Z,16.21
2018-05-16T02:15:48.376Z,16.34
2018-05-16T02:16:48.505Z,16.33
2018-05-16T02:17:48.651Z,16.36
2018-05-16T02:18:48.800Z,16.26
2018-05-16T02:19:48.976Z,16.33
2018-05-16T02:20:49.102Z,16.25
2018-05-16T02:21:49.247Z,16.26
2018-05-16T02:22:49.410Z,16.39
2018-05-16T02:23:49.540Z,16.33
2018-05-16T02:24:49.679Z,16.28
2018-05-16T02:25:49.819Z,16.39
2018-05-16T02:26:49.950Z,16.28
2018-05-16T02:27:50.089Z,16.29
2018-05-16T02:28:50.220Z,16.29
2018-05-16T02:29:50.368Z,16.37
2018-05-16T02:30:50.516Z,16.36
2018-05-16T02:31:50.649Z,16.37
2018-05-16T02:32:50.801Z,16.29
2018-05-16T02:33:50.931Z,16.26
2018-05-16T02:34:51.121Z,16.34
2018-05-16T02:35:51.976Z,16.34
2018-05-16T02:36:51.371Z,16.37
2018-05-16T02:37:51.511Z,16.22
2018-05-16T02:38:51.677Z,16.26
2018-05-16T02:39:51.810Z,16.37
2018-05-16T02:40:51.949Z,16.37
2018-05-16T02:41:52.106Z,16.33
2018-05-16T02:42:52.241Z,16.28
2018-05-16T02:43:52.382Z,16.39
2018-05-16T02:44:52.979Z,16.40
2018-05-16T02:45:52.621Z,16.40
2018-05-16T02:46:52.761Z,16.39
2018-05-16T02:47:52.903Z,16.37
2018-05-16T02:48:53.039Z,16.51
2018-05-16T02:49:53.210Z,16.46
2018-05-16T02:50:53.345Z,16.47
2018-05-16T02:51:53.476Z,16.42
2018-05-16T02:52:53.656Z,16.44
2018-05-16T02:53:53.782Z,16.44
2018-05-16T02:54:53.924Z,16.39
2018-05-16T02:55:54.101Z,16.39
2018-05-16T02:56:54.219Z,16.37
2018-05-16T02:57:54.356Z,16.36
2018-05-16T02:58:54.507Z,16.34
2018-05-16T02:59:54.647Z,16.42
2018-05-16T03:00:54.782Z,16.34
2018-05-16T03:01:54.913Z,16.39
2018-05-16T03:02:55.060Z,16.29
2018-05-16T03:03:55.194Z,16.32
2018-05-16T03:04:55.336Z,16.32
2018-05-16T03:05:55.470Z,16.28
2018-05-16T03:06:55.692Z,16.26
2018-05-16T03:07:55.796Z,16.36
2018-05-16T03:08:55.811Z,16.32
2018-05-16T03:09:55.945Z,16.29
2018-05-16T03:10:56.087Z,16.32
2018-05-16T03:11:56.246Z,16.33
2018-05-16T03:12:56.365Z,16.24
2018-05-16T03:13:56.514Z,16.21
2018-05-16T03:14:56.667Z,16.33
2018-05-16T03:15:56.808Z,16.32
2018-05-16T03:16:56.966Z,16.37
2018-05-16T03:17:57.107Z,16.36
2018-05-16T03:18:57.243Z,16.32
2018-05-16T03:19:57.387Z,16.40
2018-05-16T03:20:57.530Z,16.39
2018-05-16T03:21:57.666Z,16.29
2018-05-16T03:22:57.805Z,16.29
2018-05-16T03:23:57.942Z,16.22
2018-05-16T03:24:58.082Z,16.28
2018-05-16T03:25:58.207Z,16.26
2018-05-16T03:26:58.358Z,16.26
2018-05-16T03:27:58.502Z,16.26
2018-05-16T03:28:58.639Z,16.29
2018-05-16T03:29:58.782Z,16.26
2018-05-16T03:30:58.926Z,16.22
2018-05-16T03:31:59.070Z,16.10
2018-05-16T03:32:59.197Z,16.16
2018-05-16T03:33:59.335Z,16.18
2018-05-16T03:34:59.481Z,16.22
2018-05-16T03:35:59.623Z,16.21
2018-05-16T03:36:59.764Z,16.17
2018-05-16T03:37:59.902Z,16.14
2018-05-16T03:39:00.045Z,16.16
2018-05-16T03:40:00.177Z,16.21
2018-05-16T03:41:00.317Z,16.22
2018-05-16T03:42:00.456Z,16.24
2018-05-16T03:43:00.591Z,16.21
2018-05-16T03:44:00.728Z,16.18
2018-05-16T03:45:00.870Z,16.24
2018-05-16T03:46:01.012Z,16.22
2018-05-16T03:47:01.149Z,16.22
2018-05-16T03:48:01.287Z,16.25
2018-05-16T03:49:01.423Z,16.25
2018-05-16T03:50:01.568Z,16.25
2018-05-16T03:51:01.715Z,16.29
2018-05-16T03:52:01.884Z,16.24
2018-05-16T03:53:01.995Z,16.25
2018-05-16T03:54:02.132Z,16.21
2018-05-16T03:55:02.276Z,16.25
2018-05-16T03:56:02.409Z,16.29
2018-05-16T03:57:02.548Z,16.26
2018-05-16T03:58:02.724Z,16.34
2018-05-16T03:59:02.863Z,16.18
2018-05-16T04:00:03.015Z,16.18
2018-05-16T04:01:03.156Z,16.36
2018-05-16T04:02:03.294Z,16.18
2018-05-16T04:03:03.429Z,16.26
2018-05-16T04:04:03.562Z,16.21
2018-05-16T04:05:03.703Z,16.24
2018-05-16T04:06:03.842Z,16.21
2018-05-16T04:07:03.978Z,16.33
2018-05-16T04:08:04.125Z,16.25
2018-05-16T04:09:04.255Z,16.28
2018-05-16T04:10:05.005Z,16.32
2018-05-16T04:11:04.547Z,16.28
2018-05-16T04:12:04.686Z,16.21
2018-05-16T04:13:04.818Z,16.22
2018-05-16T04:14:04.965Z,16.22
2018-05-16T04:15:05.096Z,16.18
2018-05-16T04:16:05.235Z,16.17
2018-05-16T04:17:05.375Z,16.24
2018-05-16T04:18:05.512Z,16.26
2018-05-16T04:19:05.663Z,16.24
2018-05-16T04:20:05.805Z,16.22
2018-05-16T04:21:05.943Z,16.25
2018-05-16T04:22:06.104Z,16.21
2018-05-16T04:23:06.249Z,16.18
2018-05-16T04:24:06.399Z,16.10
2018-05-16T04:25:06.532Z,16.33
2018-05-16T04:26:06.685Z,16.22
2018-05-16T04:27:06.814Z,16.29
2018-05-16T04:28:06.960Z,16.26
2018-05-16T04:29:07.088Z,16.29
2018-05-16T04:30:07.261Z,16.22
2018-05-16T04:31:07.394Z,16.39
2018-05-16T04:32:07.538Z,16.25
2018-05-16T04:33:07.702Z,16.18
2018-05-16T04:34:07.835Z,16.22
2018-05-16T04:35:07.976Z,16.36
2018-05-16T04:36:08.112Z,16.37
2018-05-16T04:37:08.281Z,16.29
2018-05-16T04:38:08.414Z,16.25
2018-05-16T04:39:08.558Z,16.34
2018-05-16T04:40:08.693Z,16.34
2018-05-16T04:41:08.846Z,16.28
2018-05-16T04:42:08.983Z,16.28
2018-05-16T04:43:09.126Z,16.36
2018-05-16T04:44:09.283Z,16.32
2018-05-16T04:45:09.418Z,16.42
2018-05-16T04:46:09.556Z,16.29
2018-05-16T04:47:09.709Z,16.36
2018-05-16T04:48:09.870Z,16.40
2018-05-16T04:49:10.001Z,16.28
2018-05-16T04:50:10.143Z,16.34
2018-05-16T04:51:10.282Z,16.25
2018-05-16T04:52:10.430Z,16.34
2018-05-16T04:53:10.561Z,16.28
2018-05-16T04:54:10.701Z,16.40
2018-05-16T04:55:10.862Z,16.37
2018-05-16T04:56:10.993Z,16.32
2018-05-16T04:57:11.126Z,16.37
2018-05-16T04:58:11.271Z,16.40
2018-05-16T04:59:11.440Z,16.36
2018-05-16T05:00:11.575Z,16.36
2018-05-16T05:01:11.717Z,16.37
2018-05-16T05:02:11.856Z,16.36
2018-05-16T05:03:11.998Z,16.32
2018-05-16T05:04:12.132Z,16.44
2018-05-16T05:05:12.272Z,16.37
2018-05-16T05:06:12.407Z,16.37
2018-05-16T05:07:12.576Z,16.44
2018-05-16T05:08:12.716Z,16.46
2018-05-16T05:09:12.862Z,16.44
2018-05-16T05:10:13.002Z,16.36
2018-05-16T05:11:13.159Z,16.37
2018-05-16T05:12:13.294Z,16.39
2018-05-16T05:13:13.437Z,16.37
2018-05-16T05:14:13.577Z,16.42
2018-05-16T05:15:13.739Z,16.29
2018-05-16T05:16:13.877Z,16.49
2018-05-16T05:17:14.019Z,16.46
2018-05-16T05:18:14.268Z,16.37
2018-05-16T05:19:14.317Z,16.39
2018-05-16T05:20:14.452Z,16.42
2018-05-16T05:21:14.601Z,16.43
2018-05-16T05:22:14.733Z,16.52
2018-05-16T05:23:14.873Z,16.61
2018-05-16T05:24:15.019Z,16.55
2018-05-16T05:25:15.192Z,16.61
2018-05-16T05:26:15.327Z,16.58
2018-05-16T05:27:15.479Z,16.61
2018-05-16T05:28:15.610Z,16.62
2018-05-16T05:29:15.774Z,16.67
2018-05-16T05:30:15.932Z,16.74
2018-05-16T05:31:16.053Z,16.67
2018-05-16T05:32:16.195Z,16.77
2018-05-16T05:33:16.356Z,16.79
2018-05-16T05:34:16.501Z,16.77
2018-05-16T05:35:16.633Z,16.77
2018-05-16T05:36:16.833Z,16.80
2018-05-16T05:37:16.877Z,16.80
2018-05-16T05:38:17.010Z,16.72
2018-05-16T05:39:17.149Z,16.64
2018-05-16T05:40:17.287Z,16.52
2018-05-16T05:41:17.450Z,16.54
2018-05-16T05:42:17.588Z,16.58
2018-05-16T05:43:17.721Z,16.61
2018-05-16T05:44:17.860Z,16.59
2018-05-16T05:45:18.006Z,16.64
2018-05-16T05:46:18.144Z,16.64
2018-05-16T05:47:18.279Z,16.61
2018-05-16T05:48:18.416Z,16.67
2018-05-16T05:49:18.636Z,16.73
2018-05-16T05:50:18.723Z,16.67
2018-05-16T05:51:18.865Z,16.76
2018-05-16T05:52:19.011Z,16.73
2018-05-16T05:53:19.166Z,16.88
2018-05-16T05:54:19.295Z,16.79
2018-05-16T05:55:19.437Z,16.79
2018-05-16T05:56:19.607Z,16.73
2018-05-16T05:57:19.745Z,16.70
2018-05-16T05:58:19.885Z,16.87
2018-05-16T05:59:20.055Z,16.82
2018-05-16T06:00:20.191Z,16.83
2018-05-16T06:01:20.327Z,16.84
2018-05-16T06:02:20.534Z,16.88
2018-05-16T06:03:20.621Z,16.88
2018-05-16T06:04:20.757Z,16.73
2018-05-16T06:05:20.981Z,16.88
2018-05-16T06:06:21.147Z,16.88
2018-05-16T06:07:21.187Z,16.76
2018-05-16T06:08:21.322Z,16.91
2018-05-16T06:09:21.486Z,16.80
2018-05-16T06:10:21.623Z,16.83
2018-05-16T06:11:21.766Z,16.92
2018-05-16T06:12:21.909Z,16.90
2018-05-16T06:13:22.060Z,17.07
2018-05-16T06:14:22.193Z,17.06
2018-05-16T06:15:22.336Z,17.02
2018-05-16T06:16:22.482Z,17.09
2018-05-16T06:17:22.643Z,17.10
2018-05-16T06:18:22.787Z,17.13
2018-05-16T06:19:22.930Z,17.12
2018-05-16T06:20:23.091Z,17.09
2018-05-16T06:21:23.219Z,17.04
2018-05-16T06:22:23.360Z,17.09
2018-05-16T06:23:23.497Z,16.92
2018-05-16T06:24:23.658Z,17.04
2018-05-16T06:25:23.793Z,17.01
2018-05-16T06:26:23.940Z,17.04
2018-05-16T06:27:24.254Z,17.10
2018-05-16T06:28:24.227Z,17.02
2018-05-16T06:29:24.356Z,17.10
2018-05-16T06:30:24.496Z,17.06
2018-05-16T06:31:24.637Z,17.06
2018-05-16T06:32:24.796Z,17.13
2018-05-16T06:33:24.925Z,17.14
2018-05-16T06:34:25.072Z,17.13
2018-05-16T06:35:25.236Z,17.27
2018-05-16T06:36:25.372Z,17.16
2018-05-16T06:37:25.518Z,17.06
2018-05-16T06:38:25.656Z,17.12
2018-05-16T06:39:25.808Z,17.20
2018-05-16T06:40:25.942Z,17.14
2018-05-16T06:41:26.090Z,17.27
2018-05-16T06:42:26.228Z,17.28
2018-05-16T06:43:26.368Z,17.22
2018-05-16T06:44:26.516Z,17.28
2018-05-16T06:45:26.654Z,17.27
2018-05-16T06:46:26.791Z,17.39
2018-05-16T06:47:26.982Z,17.37
2018-05-16T06:48:27.119Z,17.43
2018-05-16T06:49:27.255Z,17.41
2018-05-16T06:50:27.399Z,17.31
2018-05-16T06:51:27.536Z,17.30
2018-05-16T06:52:27.677Z,17.34
2018-05-16T06:53:27.815Z,17.30
2018-05-16T06:54:27.951Z,17.27
2018-05-16T06:55:28.091Z,17.39
2018-05-16T06:56:28.289Z,17.32
2018-05-16T06:57:28.387Z,17.25
2018-05-16T06:58:28.506Z,17.24
2018-05-16T06:59:28.711Z,17.24
2018-05-16T07:00:28.745Z,17.14
2018-05-16T07:01:28.880Z,17.19
2018-05-16T07:02:29.020Z,17.13
2018-05-16T07:03:29.156Z,16.99
2018-05-16T07:04:29.301Z,17.12
2018-05-16T07:05:29.441Z,17.09
2018-05-16T07:06:29.579Z,17.13
2018-05-16T07:07:29.717Z,17.20
2018-05-16T07:08:29.857Z,17.27
2018-05-16T07:09:29.993Z,17.24
2018-05-16T07:10:30.135Z,17.25
2018-05-16T07:11:30.282Z,17.30
2018-05-16T07:12:30.425Z,17.39
2018-05-16T07:13:30.584Z,17.38
2018-05-16T07:14:30.706Z,17.37
2018-05-16T07:15:30.839Z,17.45
2018-05-16T07:16:30.996Z,17.49
2018-05-16T07:17:31.123Z,17.53
2018-05-16T07:18:31.255Z,17.47
2018-05-16T07:19:31.394Z,17.49
2018-05-16T07:20:31.536Z,17.59
2018-05-16T07:21:31.672Z,17.53
2018-05-16T07:22:31.824Z,17.62
2018-05-16T07:23:31.952Z,17.63
2018-05-16T07:24:32.094Z,17.75
2018-05-16T07:25:32.237Z,17.75
2018-05-16T07:26:32.381Z,17.79
2018-05-16T07:27:32.517Z,17.75
2018-05-16T07:28:32.686Z,17.86
2018-05-16T07:29:32.829Z,17.84
2018-05-16T07:30:32.974Z,17.81
2018-05-16T07:31:33.146Z,17.87
2018-05-16T07:32:33.338Z,17.81
2018-05-16T07:33:33.416Z,17.91
2018-05-16T07:34:33.553Z,17.87
2018-05-16T07:35:33.697Z,17.78
2018-05-16T07:36:33.834Z,18.05
2018-05-16T07:37:33.972Z,17.91
2018-05-16T07:38:34.116Z,17.99
2018-05-16T07:39:34.255Z,17.96
2018-05-16T07:40:34.403Z,17.99
2018-05-16T07:41:34.540Z,17.99
2018-05-16T07:42:34.677Z,18.05
2018-05-16T07:43:34.829Z,18.01
2018-05-16T07:44:34.964Z,18.05
2018-05-16T07:45:35.105Z,18.06
2018-05-16T07:46:35.264Z,17.97
2018-05-16T07:47:35.426Z,17.97
2018-05-16T07:48:35.563Z,17.99
2018-05-16T07:49:35.701Z,18.09
2018-05-16T07:50:35.840Z,18.01
2018-05-16T07:51:35.987Z,18.09
2018-05-16T07:52:36.128Z,18.08
2018-05-16T07:53:36.266Z,18.15
2018-05-16T07:54:36.486Z,18.12
2018-05-16T07:55:36.547Z,18.27
2018-05-16T07:56:36.685Z,18.24
2018-05-16T07:57:36.827Z,18.27
2018-05-16T07:58:36.970Z,18.30
2018-05-16T07:59:37.108Z,18.33
2018-05-16T08:00:37.244Z,18.42
2018-05-16T08:01:37.383Z,18.45
2018-05-16T08:02:37.518Z,18.36
2018-05-16T08:03:37.660Z,18.54
2018-05-16T08:04:37.809Z,18.48
2018-05-16T08:05:37.942Z,18.58
2018-05-16T08:06:38.081Z,18.61
2018-05-16T08:07:38.227Z,18.70
2018-05-16T08:08:38.365Z,18.60
2018-05-16T08:09:38.512Z,18.82
2018-05-16T08:10:38.655Z,18.83
2018-05-16T08:11:38.875Z,18.83
2018-05-16T08:12:38.995Z,18.93
2018-05-16T08:13:39.069Z,19.05
2018-05-16T08:14:39.215Z,19.00
2018-05-16T08:15:39.354Z,19.04
2018-05-16T08:16:39.494Z,19.01
2018-05-16T08:17:39.638Z,19.00
2018-05-16T08:18:39.776Z,19.07
2018-05-16T08:19:39.917Z,19.12
2018-05-16T08:20:40.063Z,19.15
2018-05-16T08:21:40.207Z,19.08
2018-05-16T08:22:40.343Z,19.08
2018-05-16T08:23:40.497Z,19.24
2018-05-16T08:24:40.698Z,19.19
2018-05-16T08:25:40.795Z,19.24
2018-05-16T08:26:40.937Z,19.24
2018-05-16T08:27:41.079Z,19.16
2018-05-16T08:28:41.236Z,19.20
2018-05-16T08:29:41.374Z,19.16
2018-05-16T08:30:41.516Z,19.22
2018-05-16T08:31:41.653Z,19.12
2018-05-16T08:32:41.804Z,19.08
2018-05-16T08:33:41.937Z,19.12
2018-05-16T08:34:42.079Z,19.09
2018-05-16T08:35:42.247Z,19.20
2018-05-16T08:36:42.451Z,19.16
2018-05-16T08:37:42.511Z,19.12
2018-05-16T08:38:42.657Z,19.13
2018-05-16T08:39:42.821Z,19.19
2018-05-16T08:40:42.961Z,19.19
2018-05-16T08:41:43.105Z,19.16
2018-05-16T08:42:43.249Z,19.23
2018-05-16T08:43:43.413Z,19.12
2018-05-16T08:44:43.546Z,19.07
2018-05-16T08:45:43.684Z,19.04
2018-05-16T08:46:43.827Z,19.01
2018-05-16T08:47:43.980Z,19.12
2018-05-16T08:48:44.125Z,19.12
2018-05-16T08:49:44.265Z,19.12
2018-05-16T08:50:44.407Z,19.04
2018-05-16T08:51:44.659Z,19.13
2018-05-16T08:52:44.616Z,19.07
2018-05-16T08:53:44.776Z,19.12
2018-05-16T08:54:44.911Z,19.22
2018-05-16T08:55:45.059Z,19.20
2018-05-16T08:56:45.199Z,19.19
2018-05-16T08:57:45.349Z,19.23
2018-05-16T08:58:45.499Z,19.31
2018-05-16T08:59:45.670Z,19.27
2018-05-16T09:00:45.806Z,19.26
2018-05-16T09:01:45.948Z,19.27
2018-05-16T09:02:46.112Z,19.44
2018-05-16T09:03:46.248Z,19.38
2018-05-16T09:04:46.388Z,19.39
2018-05-16T09:05:46.532Z,19.41
2018-05-16T09:06:46.771Z,19.53
2018-05-16T09:07:46.758Z,19.50
2018-05-16T09:08:46.901Z,19.52
2018-05-16T09:09:47.031Z,19.59
2018-05-16T09:10:47.184Z,19.60
2018-05-16T09:11:47.320Z,19.60
2018-05-16T09:12:47.466Z,19.68
2018-05-16T09:13:47.616Z,19.77
2018-05-16T09:14:47.761Z,19.70
2018-05-16T09:15:47.903Z,19.59
2018-05-16T09:16:48.042Z,19.71
2018-05-16T09:17:48.208Z,19.74
2018-05-16T09:18:48.344Z,19.64
2018-05-16T09:19:48.485Z,19.74
2018-05-16T09:20:48.633Z,19.74
2018-05-16T09:21:48.774Z,19.78
2018-05-16T09:22:48.908Z,19.75
2018-05-16T09:23:49.051Z,19.71
2018-05-16T09:24:49.222Z,19.64
2018-05-16T09:25:49.342Z,19.70
2018-05-16T09:26:49.482Z,19.70
2018-05-16T09:27:49.626Z,19.82
2018-05-16T09:28:49.791Z,19.82
2018-05-16T09:29:49.933Z,19.84
2018-05-16T09:30:50.072Z,19.79
2018-05-16T09:31:50.235Z,19.86
2018-05-16T09:32:50.393Z,19.84
2018-05-16T09:33:50.517Z,20.00
2018-05-16T09:34:50.662Z,19.86
2018-05-16T09:35:50.863Z,19.94
2018-05-16T09:36:50.977Z,19.86
2018-05-16T09:37:51.113Z,20.00
2018-05-16T09:38:51.250Z,19.93
2018-05-16T09:39:51.389Z,19.86
2018-05-16T09:40:51.521Z,19.99
2018-05-16T09:41:51.666Z,20.02
2018-05-16T09:42:51.828Z,19.99
2018-05-16T09:43:51.969Z,19.96
2018-05-16T09:44:52.111Z,20.04
2018-05-16T09:45:52.315Z,20.15
2018-05-16T09:46:52.423Z,20.05
2018-05-16T09:47:52.559Z,20.07
2018-05-16T09:48:52.734Z,20.08
2018-05-16T09:49:52.868Z,20.11
2018-05-16T09:50:53.013Z,20.09
2018-05-16T09:51:53.146Z,20.08
2018-05-16T09:52:53.288Z,20.05
2018-05-16T09:53:53.436Z,20.18
2018-05-16T09:54:53.608Z,20.05
2018-05-16T09:55:53.747Z,20.15
2018-05-16T09:56:53.894Z,20.23
2018-05-16T09:57:54.039Z,20.19
2018-05-16T09:58:54.205Z,20.23
2018-05-16T09:59:54.315Z,20.19
2018-05-16T10:00:54.458Z,20.17
2018-05-16T10:01:54.601Z,20.22
2018-05-16T10:02:54.794Z,20.19
2018-05-16T10:03:54.879Z,20.32
2018-05-16T10:04:55.014Z,20.37
2018-05-16T10:05:55.161Z,20.25
2018-05-16T10:06:55.311Z,20.25
2018-05-16T10:07:55.448Z,20.32
2018-05-16T10:08:55.591Z,20.33
2018-05-16T10:09:55.757Z,20.29
2018-05-16T10:10:55.881Z,20.27
2018-05-16T10:11:56.021Z,20.27
2018-05-16T10:12:56.165Z,20.27
2018-05-16T10:13:56.326Z,20.23
2018-05-16T10:14:56.460Z,20.14
2018-05-16T10:15:56.604Z,20.23
2018-05-16T10:16:56.758Z,20.37
2018-05-16T10:17:56.916Z,20.39
2018-05-16T10:18:57.057Z,20.49
2018-05-16T10:19:57.195Z,20.42
2018-05-16T10:20:57.370Z,20.37
2018-05-16T10:21:57.513Z,20.50
2018-05-16T10:22:58.080Z,20.48
2018-05-16T10:23:57.816Z,20.37
2018-05-16T10:24:57.944Z,20.39
2018-05-16T10:25:58.537Z,20.34
2018-05-16T10:26:58.208Z,20.56
2018-05-16T10:27:59.571Z,20.52
2018-05-16T10:28:58.498Z,20.56
2018-05-16T10:29:58.628Z,20.68
2018-05-16T10:30:58.782Z,20.67
2018-05-16T10:31:58.921Z,20.68
2018-05-16T10:32:59.066Z,20.74
2018-05-16T10:33:59.217Z,20.79
2018-05-16T10:34:59.361Z,20.83
2018-05-16T10:35:59.502Z,20.92
2018-05-16T10:37:00.776Z,20.92
2018-05-16T10:37:59.772Z,20.98
2018-05-16T10:38:59.918Z,21.11
2018-05-16T10:40:00.057Z,21.18
2018-05-16T10:41:00.221Z,21.14
2018-05-16T10:42:00.368Z,21.23
2018-05-16T10:43:00.538Z,21.20
2018-05-16T10:44:00.680Z,21.18
2018-05-16T10:45:00.827Z,21.22
2018-05-16T10:46:00.987Z,21.25
2018-05-16T10:47:01.119Z,21.35
2018-05-16T10:48:01.268Z,21.35
2018-05-16T10:49:01.414Z,21.30
2018-05-16T10:50:01.555Z,21.44
2018-05-16T10:51:01.698Z,21.44
2018-05-16T10:52:01.838Z,21.41
2018-05-16T10:53:01.976Z,21.41
2018-05-16T10:54:02.141Z,21.23
2018-05-16T10:55:02.286Z,21.16
2018-05-16T10:56:02.428Z,21.04
2018-05-16T10:57:02.571Z,21.13
2018-05-16T10:58:03.623Z,21.20
2018-05-16T10:59:02.794Z,21.34
2018-05-16T11:00:02.936Z,21.30
2018-05-16T11:01:03.077Z,21.32
2018-05-16T11:02:03.223Z,21.34
2018-05-16T11:03:03.370Z,21.38
2018-05-16T11:04:03.513Z,21.45
2018-05-16T11:05:03.664Z,21.32
2018-05-16T11:06:03.799Z,21.45
2018-05-16T11:07:03.943Z,21.30
2018-05-16T11:08:04.083Z,21.11
2018-05-16T11:09:04.233Z,21.14
2018-05-16T11:10:04.382Z,21.07
2018-05-16T11:11:04.531Z,21.08
2018-05-16T11:12:04.679Z,21.03
2018-05-16T11:13:04.816Z,21.07
2018-05-16T11:14:04.955Z,20.92
2018-05-16T11:15:05.098Z,20.95
2018-05-16T11:16:05.252Z,20.77
2018-05-16T11:17:05.396Z,20.74
2018-05-16T11:18:05.540Z,20.73
2018-05-16T11:19:05.676Z,20.88
2018-05-16T11:20:05.822Z,20.90
2018-05-16T11:21:05.953Z,20.92
2018-05-16T11:22:06.093Z,20.92
2018-05-16T11:23:06.236Z,20.89
2018-05-16T11:24:06.385Z,20.88
2018-05-16T11:25:06.543Z,20.86
2018-05-16T11:26:06.679Z,20.67
2018-05-16T11:27:06.823Z,20.75
2018-05-16T11:28:06.966Z,20.67
2018-05-16T11:29:07.129Z,20.65
2018-05-16T11:30:07.273Z,20.67
2018-05-16T11:31:07.417Z,20.61
2018-05-16T11:32:07.565Z,20.63
2018-05-16T11:33:07.714Z,20.61
2018-05-16T11:34:07.853Z,20.52
2018-05-16T11:35:08.009Z,20.55
2018-05-16T11:36:08.151Z,20.56
2018-05-16T11:37:08.342Z,20.48
2018-05-16T11:38:08.451Z,20.49
2018-05-16T11:39:08.591Z,20.55
2018-05-16T11:40:08.731Z,20.56
2018-05-16T11:41:08.908Z,20.55
2018-05-16T11:42:09.037Z,20.52
2018-05-16T11:43:09.176Z,20.58
2018-05-16T11:44:09.317Z,20.48
2018-05-16T11:45:09.465Z,20.42
2018-05-16T11:46:09.603Z,20.36
2018-05-16T11:47:09.746Z,20.39
2018-05-16T11:48:09.896Z,20.39
2018-05-16T11:49:10.033Z,20.32
2018-05-16T11:50:10.177Z,20.29
2018-05-16T11:51:10.321Z,20.32
2018-05-16T11:52:10.489Z,20.34
2018-05-16T11:53:10.676Z,20.39
2018-05-16T11:54:10.770Z,20.50
2018-05-16T11:55:10.934Z,20.52
2018-05-16T11:56:11.091Z,20.49
2018-05-16T11:57:11.213Z,20.55
2018-05-16T11:58:11.360Z,20.63
2018-05-16T11:59:11.561Z,20.50
2018-05-16T12:00:11.672Z,20.52
2018-05-16T12:01:11.813Z,20.61
2018-05-16T12:02:11.954Z,20.65
2018-05-16T12:03:12.123Z,20.70
2018-05-16T12:04:12.261Z,20.65
2018-05-16T12:05:12.430Z,20.71
2018-05-16T12:06:12.543Z,20.71
2018-05-16T12:07:12.697Z,20.80
2018-05-16T12:08:12.842Z,20.89
2018-05-16T12:09:13.041Z,20.90
2018-05-16T12:10:13.167Z,20.92
2018-05-16T12:11:13.295Z,21.03
2018-05-16T12:12:13.441Z,21.11
2018-05-16T12:13:13.598Z,21.11
2018-05-16T12:14:13.732Z,21.20
2018-05-16T12:15:13.872Z,21.20
2018-05-16T12:16:14.019Z,21.26
2018-05-16T12:17:14.189Z,21.23
2018-05-16T12:18:14.332Z,21.37
2018-05-16T12:19:14.473Z,21.25
2018-05-16T12:20:14.614Z,21.32
2018-05-16T12:21:14.783Z,21.34
2018-05-16T12:22:14.916Z,21.29
2018-05-16T12:23:15.063Z,21.41
2018-05-16T12:24:15.226Z,21.43
2018-05-16T12:25:15.366Z,21.41
2018-05-16T12:26:15.509Z,21.45
2018-05-16T12:27:15.652Z,21.41
2018-05-16T12:28:15.801Z,21.43
2018-05-16T12:29:16.000Z,21.41
2018-05-16T12:30:16.084Z,21.34
2018-05-16T12:31:16.243Z,21.32
2018-05-16T12:32:16.385Z,21.28
2018-05-16T12:33:16.529Z,21.16
2018-05-16T12:34:16.691Z,20.95
2018-05-16T12:35:16.835Z,20.92
2018-05-16T12:36:16.972Z,20.74
2018-05-16T12:37:17.119Z,20.77
2018-05-16T12:38:17.284Z,20.65
2018-05-16T12:39:17.400Z,20.58
2018-05-16T12:40:17.541Z,20.48
2018-05-16T12:41:17.692Z,20.30
2018-05-16T12:42:17.882Z,20.22
2018-05-16T12:43:18.019Z,20.22
2018-05-16T12:44:18.162Z,20.23
2018-05-16T12:45:18.305Z,20.11
2018-05-16T12:46:18.535Z,19.78
2018-05-16T12:47:18.592Z,19.64
2018-05-16T12:48:18.741Z,19.49
2018-05-16T12:49:18.971Z,18.97
2018-05-16T12:50:19.046Z,18.68
2018-05-16T12:51:19.184Z,18.63
2018-05-16T12:52:19.341Z,18.21
2018-05-16T12:53:19.477Z,18.06
2018-05-16T12:54:19.660Z,17.73